createdAt,value
2022-09-06T00:00:15.133Z,1017.68
2022-09-06T00:01:15.128Z,1017.67
2022-09-06T00:02:15.145Z,1017.67
2022-09-06T00:03:15.096Z,1017.65
2022-09-06T00:04:15.668Z,1017.69
2022-09-06T00:05:15.078Z,1017.67
2022-09-06T00:06:15.076Z,1017.63
2022-09-06T00:07:15.052Z,1017.64
2022-09-06T00:08:15.042Z,1017.68
2022-09-06T00:09:15.034Z,1017.68
2022-09-06T00:10:15.019Z,1017.65
2022-09-06T00:11:15.023Z,1017.67
2022-09-06T00:12:14.996Z,1017.62
2022-09-06T00:13:14.989Z,1017.61
2022-09-06T00:14:14.973Z,1017.66
2022-09-06T00:15:14.968Z,1017.65
2022-09-06T00:16:15.082Z,1017.61
2022-09-06T00:17:14.946Z,1017.66
2022-09-06T00:18:14.929Z,1017.61
2022-09-06T00:19:14.921Z,1017.62
2022-09-06T00:20:14.910Z,1017.61
2022-09-06T00:21:14.908Z,1017.65
2022-09-06T00:22:14.953Z,1017.64
2022-09-06T00:23:14.881Z,1017.67
2022-09-06T00:24:14.867Z,1017.66
2022-09-06T00:25:14.860Z,1017.61
2022-09-06T00:26:14.854Z,1017.65
2022-09-06T00:27:14.840Z,1017.67
2022-09-06T00:28:14.824Z,1017.61
2022-09-06T00:29:14.812Z,1017.58
2022-09-06T00:30:14.802Z,1017.56
2022-09-06T00:31:14.843Z,1017.55
2022-09-06T00:32:14.777Z,1017.65
2022-09-06T00:33:14.768Z,1017.63
2022-09-06T00:34:14.758Z,1017.67
2022-09-06T00:35:14.745Z,1017.67
2022-09-06T00:36:14.748Z,1017.65
2022-09-06T00:37:14.723Z,1017.62
2022-09-06T00:38:14.716Z,1017.59
2022-09-06T00:39:14.702Z,1017.64
2022-09-06T00:40:14.693Z,1017.65
2022-09-06T00:41:14.693Z,1017.63
2022-09-06T00:42:14.669Z,1017.59
2022-09-06T00:43:14.658Z,1017.62
2022-09-06T00:44:14.648Z,1017.63
2022-09-06T00:45:14.646Z,1017.61
2022-09-06T00:46:14.685Z,1017.62
2022-09-06T00:47:14.612Z,1017.61
2022-09-06T00:48:14.604Z,1017.60
2022-09-06T00:49:14.590Z,1017.67
2022-09-06T00:50:14.596Z,1017.63
2022-09-06T00:51:14.570Z,1017.65
2022-09-06T00:52:14.557Z,1017.63
2022-09-06T00:53:14.547Z,1017.69
2022-09-06T00:54:14.540Z,1017.66
2022-09-06T00:55:14.535Z,1017.61
2022-09-06T00:56:14.515Z,1017.60
2022-09-06T00:57:14.503Z,1017.61
2022-09-06T00:58:14.493Z,1017.61
2022-09-06T00:59:14.480Z,1017.64
2022-09-06T01:00:14.482Z,1017.64
2022-09-06T01:01:14.615Z,1017.64
2022-09-06T01:02:14.576Z,1017.67
2022-09-06T01:03:14.437Z,1017.66
2022-09-06T01:04:14.431Z,1017.71
2022-09-06T01:05:14.426Z,1017.67
2022-09-06T01:06:14.407Z,1017.65
2022-09-06T01:07:14.403Z,1017.64
2022-09-06T01:08:14.385Z,1017.62
2022-09-06T01:09:14.374Z,1017.63
2022-09-06T01:10:14.376Z,1017.62
2022-09-06T01:11:14.350Z,1017.59
2022-09-06T01:12:14.341Z,1017.62
2022-09-06T01:13:14.328Z,1017.53
2022-09-06T01:14:14.319Z,1017.59
2022-09-06T01:15:14.316Z,1017.55
2022-09-06T01:16:14.371Z,1017.53
2022-09-06T01:17:14.285Z,1017.54
2022-09-06T01:18:14.275Z,1017.56
2022-09-06T01:19:14.264Z,1017.62
2022-09-06T01:20:14.268Z,1017.59
2022-09-06T01:21:14.240Z,1017.61
2022-09-06T01:22:14.236Z,1017.63
2022-09-06T01:23:14.219Z,1017.58
2022-09-06T01:24:14.210Z,1017.52
2022-09-06T01:25:14.197Z,1017.58
2022-09-06T01:26:14.199Z,1017.54
2022-09-06T01:27:14.177Z,1017.52
2022-09-06T01:28:14.167Z,1017.53
2022-09-06T01:29:14.152Z,1017.54
2022-09-06T01:30:14.153Z,1017.48
2022-09-06T01:31:14.188Z,1017.53
2022-09-06T01:32:14.123Z,1017.54
2022-09-06T01:33:14.110Z,1017.52
2022-09-06T01:34:14.100Z,1017.51
2022-09-06T01:35:14.105Z,1017.52
2022-09-06T01:36:14.081Z,1017.51
2022-09-06T01:37:14.068Z,1017.50
2022-09-06T01:38:14.056Z,1017.47
2022-09-06T01:39:14.085Z,1017.52
2022-09-06T01:40:14.052Z,1017.47
2022-09-06T01:41:14.030Z,1017.43
2022-09-06T01:42:14.012Z,1017.45
2022-09-06T01:43:13.999Z,1017.48
2022-09-06T01:44:13.991Z,1017.42
2022-09-06T01:45:13.987Z,1017.44
2022-09-06T01:46:14.007Z,1017.41
2022-09-06T01:47:13.956Z,1017.39
2022-09-06T01:48:13.950Z,1017.41
2022-09-06T01:49:13.936Z,1017.44
2022-09-06T01:50:13.955Z,1017.40
2022-09-06T01:51:13.924Z,1017.37
2022-09-06T01:52:13.902Z,1017.37
2022-09-06T01:53:13.892Z,1017.36
2022-09-06T01:54:13.883Z,1017.33
2022-09-06T01:55:13.870Z,1017.33
2022-09-06T01:56:13.877Z,1017.35
2022-09-06T01:57:13.849Z,1017.36
2022-09-06T01:58:13.842Z,1017.39
2022-09-06T01:59:13.825Z,1017.35
2022-09-06T02:00:13.820Z,1017.35
2022-09-06T02:01:13.889Z,1017.34
2022-09-06T02:02:13.812Z,1017.36
2022-09-06T02:03:13.783Z,1017.32
2022-09-06T02:04:13.771Z,1017.36
2022-09-06T02:05:13.762Z,1017.40
2022-09-06T02:06:13.762Z,1017.37
2022-09-06T02:07:13.737Z,1017.37
2022-09-06T02:08:13.729Z,1017.37
2022-09-06T02:09:13.722Z,1017.35
2022-09-06T02:10:13.706Z,1017.30
2022-09-06T02:11:13.708Z,1017.38
2022-09-06T02:12:13.685Z,1017.33
2022-09-06T02:13:13.674Z,1017.30
2022-09-06T02:14:13.661Z,1017.25
2022-09-06T02:15:13.655Z,1017.26
2022-09-06T02:16:13.654Z,1017.25
2022-09-06T02:17:13.627Z,1017.23
2022-09-06T02:18:13.618Z,1017.28
2022-09-06T02:19:13.608Z,1017.30
2022-09-06T02:20:13.597Z,1017.21
2022-09-06T02:21:13.597Z,1017.24
2022-09-06T02:22:13.576Z,1017.28
2022-09-06T02:23:13.562Z,1017.32
2022-09-06T02:24:13.552Z,1017.39
2022-09-06T02:25:13.541Z,1017.29
2022-09-06T02:26:13.540Z,1017.23
2022-09-06T02:27:13.518Z,1017.24
2022-09-06T02:28:13.508Z,1017.27
2022-09-06T02:29:13.497Z,1017.25
2022-09-06T02:30:13.495Z,1017.24
2022-09-06T02:31:13.522Z,1017.30
2022-09-06T02:32:13.464Z,1017.34
2022-09-06T02:33:13.456Z,1017.31
2022-09-06T02:34:13.443Z,1017.27
2022-09-06T02:35:13.432Z,1017.30
2022-09-06T02:36:13.433Z,1017.30
2022-09-06T02:37:13.410Z,1017.30
2022-09-06T02:38:13.403Z,1017.30
2022-09-06T02:39:13.389Z,1017.34
2022-09-06T02:40:13.377Z,1017.34
2022-09-06T02:41:13.376Z,1017.34
2022-09-06T02:42:13.360Z,1017.33
2022-09-06T02:43:13.344Z,1017.34
2022-09-06T02:44:13.335Z,1017.25
2022-09-06T02:45:13.323Z,1017.31
2022-09-06T02:46:13.359Z,1017.30
2022-09-06T02:47:13.303Z,1017.30
2022-09-06T02:48:13.289Z,1017.24
2022-09-06T02:49:13.280Z,1017.30
2022-09-06T02:50:13.268Z,1017.27
2022-09-06T02:51:13.268Z,1017.33
2022-09-06T02:52:13.248Z,1017.34
2022-09-06T02:53:13.239Z,1017.36
2022-09-06T02:54:13.224Z,1017.36
2022-09-06T02:55:13.212Z,1017.35
2022-09-06T02:56:13.217Z,1017.36
2022-09-06T02:57:13.192Z,1017.37
2022-09-06T02:58:13.182Z,1017.32
2022-09-06T02:59:13.167Z,1017.27
2022-09-06T03:00:13.158Z,1017.29
2022-09-06T03:01:13.246Z,1017.29
2022-09-06T03:02:13.157Z,1017.37
2022-09-06T03:03:13.125Z,1017.31
2022-09-06T03:04:13.117Z,1017.32
2022-09-06T03:05:13.105Z,1017.36
2022-09-06T03:06:13.103Z,1017.33
2022-09-06T03:07:13.082Z,1017.35
2022-09-06T03:08:13.070Z,1017.28
2022-09-06T03:09:13.060Z,1017.34
2022-09-06T03:10:13.049Z,1017.31
2022-09-06T03:11:13.046Z,1017.30
2022-09-06T03:12:13.026Z,1017.31
2022-09-06T03:13:13.013Z,1017.29
2022-09-06T03:14:13.005Z,1017.26
2022-09-06T03:15:12.992Z,1017.27
2022-09-06T03:16:13.080Z,1017.26
2022-09-06T03:17:12.968Z,1017.25
2022-09-06T03:18:12.961Z,1017.29
2022-09-06T03:19:12.949Z,1017.32
2022-09-06T03:20:12.939Z,1017.27
2022-09-06T03:21:12.937Z,1017.26
2022-09-06T03:22:12.919Z,1017.23
2022-09-06T03:23:12.904Z,1017.24
2022-09-06T03:24:12.906Z,1017.21
2022-09-06T03:25:12.891Z,1017.17
2022-09-06T03:26:12.888Z,1017.21
2022-09-06T03:27:12.865Z,1017.17
2022-09-06T03:28:12.849Z,1017.16
2022-09-06T03:29:12.837Z,1017.25
2022-09-06T03:30:12.829Z,1017.12
2022-09-06T03:31:12.882Z,1017.19
2022-09-06T03:32:12.809Z,1017.19
2022-09-06T03:33:12.793Z,1017.14
2022-09-06T03:34:12.788Z,1017.19
2022-09-06T03:35:12.783Z,1017.15
2022-09-06T03:36:12.766Z,1017.14
2022-09-06T03:37:12.751Z,1017.11
2022-09-06T03:38:12.745Z,1017.07
2022-09-06T03:39:12.731Z,1017.14
2022-09-06T03:40:12.782Z,1017.08
2022-09-06T03:41:12.707Z,1017.12
2022-09-06T03:42:12.698Z,1017.13
2022-09-06T03:43:12.685Z,1017.06
2022-09-06T03:44:12.677Z,1017.08
2022-09-06T03:45:12.673Z,1017.08
2022-09-06T03:46:12.729Z,1017.11
2022-09-06T03:47:12.643Z,1017.09
2022-09-06T03:48:12.631Z,1017.10
2022-09-06T03:49:12.618Z,1017.04
2022-09-06T03:50:12.625Z,1017.04
2022-09-06T03:51:12.598Z,1017.05
2022-09-06T03:52:12.586Z,1017.04
2022-09-06T03:53:12.574Z,1017.04
2022-09-06T03:54:12.564Z,1017.09
2022-09-06T03:55:12.562Z,1017.07
2022-09-06T03:56:12.545Z,1017.06
2022-09-06T03:57:12.533Z,1017.12
2022-09-06T03:58:12.524Z,1017.11
2022-09-06T03:59:12.511Z,1017.09
2022-09-06T04:00:12.517Z,1017.07
2022-09-06T04:01:12.575Z,1017.08
2022-09-06T04:02:12.586Z,1017.11
2022-09-06T04:03:12.465Z,1017.13
2022-09-06T04:04:12.455Z,1017.09
2022-09-06T04:05:12.462Z,1017.12
2022-09-06T04:06:12.434Z,1017.09
2022-09-06T04:07:12.422Z,1017.07
2022-09-06T04:08:12.412Z,1017.10
2022-09-06T04:09:12.439Z,1017.08
2022-09-06T04:10:12.411Z,1017.03
2022-09-06T04:11:12.377Z,1017.03
2022-09-06T04:12:12.366Z,1016.99
2022-09-06T04:13:12.355Z,1017.02
2022-09-06T04:14:12.347Z,1017.03
2022-09-06T04:15:12.347Z,1017.05
2022-09-06T04:16:12.379Z,1017.00
2022-09-06T04:17:12.313Z,1017.02
2022-09-06T04:18:12.301Z,1017.00
2022-09-06T04:19:12.289Z,1017.04
2022-09-06T04:20:12.291Z,1017.03
2022-09-06T04:21:12.270Z,1017.00
2022-09-06T04:22:12.261Z,1017.00
2022-09-06T04:23:12.251Z,1017.00
2022-09-06T04:24:12.237Z,1017.02
2022-09-06T04:25:12.230Z,1016.97
2022-09-06T04:26:12.214Z,1016.98
2022-09-06T04:27:12.202Z,1016.93
2022-09-06T04:28:12.191Z,1016.92
2022-09-06T04:29:12.189Z,1016.96
2022-09-06T04:30:12.179Z,1016.95
2022-09-06T04:31:12.165Z,1016.93
2022-09-06T04:32:12.229Z,1016.94
2022-09-06T04:33:12.134Z,1016.96
2022-09-06T04:34:12.135Z,1016.95
2022-09-06T04:35:12.114Z,1017.01
2022-09-06T04:36:12.107Z,1016.93
2022-09-06T04:37:12.091Z,1016.99
2022-09-06T04:38:12.079Z,1016.96
2022-09-06T04:39:12.082Z,1016.97
2022-09-06T04:40:12.058Z,1016.94
2022-09-06T04:41:12.044Z,1016.96
2022-09-06T04:42:12.035Z,1016.91
2022-09-06T04:43:12.029Z,1016.97
2022-09-06T04:44:12.029Z,1016.95
2022-09-06T04:45:12.002Z,1016.96
2022-09-06T04:46:12.058Z,1016.92
2022-09-06T04:47:12.025Z,1016.93
2022-09-06T04:48:11.969Z,1016.90
2022-09-06T04:49:11.967Z,1016.96
2022-09-06T04:50:11.951Z,1016.97
2022-09-06T04:51:11.942Z,1016.86
2022-09-06T04:52:11.925Z,1016.85
2022-09-06T04:53:11.933Z,1016.82
2022-09-06T04:54:11.911Z,1016.79
2022-09-06T04:55:11.892Z,1016.81
2022-09-06T04:56:11.902Z,1016.82
2022-09-06T04:57:11.870Z,1016.78
2022-09-06T04:58:11.860Z,1016.78
2022-09-06T04:59:11.865Z,1016.83
2022-09-06T05:00:11.835Z,1016.82
2022-09-06T05:01:11.895Z,1016.76
2022-09-06T05:02:11.844Z,1016.82
2022-09-06T05:03:11.804Z,1016.79
2022-09-06T05:04:11.804Z,1016.79
2022-09-06T05:05:11.783Z,1016.82
2022-09-06T05:06:11.769Z,1016.86
2022-09-06T05:07:11.759Z,1016.81
2022-09-06T05:08:11.749Z,1016.84
2022-09-06T05:09:11.755Z,1016.85
2022-09-06T05:10:11.726Z,1016.80
2022-09-06T05:11:11.718Z,1016.77
2022-09-06T05:12:11.706Z,1016.72
2022-09-06T05:13:11.695Z,1016.68
2022-09-06T05:14:11.695Z,1016.71
2022-09-06T05:15:11.676Z,1016.68
2022-09-06T05:16:11.692Z,1016.66
2022-09-06T05:17:11.650Z,1016.61
2022-09-06T05:18:15.566Z,1016.68
2022-09-06T05:19:11.642Z,1016.70
2022-09-06T05:20:11.624Z,1016.66
2022-09-06T05:21:11.608Z,1016.68
2022-09-06T05:22:11.594Z,1016.68
2022-09-06T05:23:11.583Z,1016.69
2022-09-06T05:24:11.588Z,1016.72
2022-09-06T05:25:11.562Z,1016.74
2022-09-06T05:26:11.552Z,1016.73
2022-09-06T05:27:11.543Z,1016.76
2022-09-06T05:28:11.529Z,1016.76
2022-09-06T05:29:11.531Z,1016.71
2022-09-06T05:30:11.507Z,1016.76
2022-09-06T05:31:11.499Z,1016.72
2022-09-06T05:32:11.490Z,1016.79
2022-09-06T05:33:11.479Z,1016.70
2022-09-06T05:34:11.481Z,1016.69
2022-09-06T05:35:11.471Z,1016.65
2022-09-06T05:36:11.449Z,1016.64
2022-09-06T05:37:11.436Z,1016.67
2022-09-06T05:38:11.422Z,1016.67
2022-09-06T05:39:11.527Z,1016.65
2022-09-06T05:40:11.558Z,1016.72
2022-09-06T05:41:11.404Z,1016.69
2022-09-06T05:42:13.988Z,1016.72
2022-09-06T05:43:12.369Z,1016.78
2022-09-06T05:44:11.397Z,1016.77
2022-09-06T05:45:11.357Z,1016.85
2022-09-06T05:46:11.363Z,1016.77
2022-09-06T05:47:11.331Z,1016.79
2022-09-06T05:48:11.310Z,1016.85
2022-09-06T05:49:11.315Z,1016.85
2022-09-06T05:50:11.338Z,1016.85
2022-09-06T05:51:11.281Z,1016.84
2022-09-06T05:52:11.265Z,1016.84
2022-09-06T05:53:11.257Z,1016.85
2022-09-06T05:54:11.261Z,1016.86
2022-09-06T05:55:11.234Z,1016.88
2022-09-06T05:56:11.252Z,1016.89
2022-09-06T05:57:11.212Z,1016.91
2022-09-06T05:58:11.201Z,1016.83
2022-09-06T05:59:11.209Z,1016.89
2022-09-06T06:00:11.180Z,1016.85
2022-09-06T06:01:11.239Z,1016.85
2022-09-06T06:02:11.238Z,1016.83
2022-09-06T06:03:11.146Z,1016.84
2022-09-06T06:04:11.142Z,1016.81
2022-09-06T06:05:11.128Z,1016.70
2022-09-06T06:06:11.114Z,1016.75
2022-09-06T06:07:11.107Z,1016.76
2022-09-06T06:08:11.097Z,1016.73
2022-09-06T06:09:11.121Z,1016.76
2022-09-06T06:10:11.073Z,1016.69
2022-09-06T06:11:11.155Z,1016.62
2022-09-06T06:12:11.047Z,1016.60
2022-09-06T06:13:11.053Z,1016.61
2022-09-06T06:14:11.058Z,1016.55
2022-09-06T06:15:11.055Z,1016.58
2022-09-06T06:16:11.091Z,1016.57
2022-09-06T06:17:10.999Z,1016.54
2022-09-06T06:18:11.015Z,1016.49
2022-09-06T06:19:10.991Z,1016.55
2022-09-06T06:20:10.960Z,1016.59
2022-09-06T06:21:10.950Z,1016.54
2022-09-06T06:22:10.991Z,1016.55
2022-09-06T06:23:10.933Z,1016.56
2022-09-06T06:24:10.928Z,1016.55
2022-09-06T06:25:12.608Z,1016.58
2022-09-06T06:26:10.897Z,1016.73
2022-09-06T06:27:10.902Z,1016.59
2022-09-06T06:28:10.869Z,1016.55
2022-09-06T06:29:10.874Z,1016.67
2022-09-06T06:30:13.254Z,1016.62
2022-09-06T06:31:11.866Z,1016.66
2022-09-06T06:32:10.974Z,1016.63
2022-09-06T06:33:10.820Z,1016.71
2022-09-06T06:34:10.811Z,1016.71
2022-09-06T06:35:10.798Z,1016.74
2022-09-06T06:36:10.783Z,1016.74
2022-09-06T06:37:10.773Z,1016.72
2022-09-06T06:38:10.778Z,1016.74
2022-09-06T06:39:10.749Z,1016.69
2022-09-06T06:40:10.838Z,1016.65
2022-09-06T06:41:10.730Z,1016.67
2022-09-06T06:42:10.716Z,1016.65
2022-09-06T06:43:10.710Z,1016.66
2022-09-06T06:44:10.723Z,1016.60
2022-09-06T06:45:10.687Z,1016.64
2022-09-06T06:46:10.770Z,1016.60
2022-09-06T06:47:10.661Z,1016.63
2022-09-06T06:48:10.650Z,1016.63
2022-09-06T06:49:10.652Z,1016.61
2022-09-06T06:50:10.631Z,1016.54
2022-09-06T06:51:10.618Z,1016.62
2022-09-06T06:52:10.607Z,1016.55
2022-09-06T06:53:10.601Z,1016.53
2022-09-06T06:54:10.597Z,1016.58
2022-09-06T06:55:10.576Z,1016.51
2022-09-06T06:56:10.566Z,1016.53
2022-09-06T06:57:10.580Z,1016.53
2022-09-06T06:58:10.541Z,1016.54
2022-09-06T06:59:10.564Z,1016.52
2022-09-06T07:00:10.522Z,1016.55
2022-09-06T07:01:10.658Z,1016.51
2022-09-06T07:02:10.695Z,1016.50
2022-09-06T07:03:10.496Z,1016.48
2022-09-06T07:04:10.533Z,1016.47
2022-09-06T07:06:12.141Z,1016.43
2022-09-06T07:08:11.428Z,1016.39
2022-09-06T07:09:10.435Z,1016.41
2022-09-06T07:11:11.399Z,1016.47
2022-09-06T07:12:10.386Z,1016.45
2022-09-06T07:13:10.377Z,1016.49
2022-09-06T07:14:10.380Z,1016.46
2022-09-06T07:15:10.360Z,1016.52
2022-09-06T07:16:10.378Z,1016.44
2022-09-06T07:17:10.341Z,1016.53
2022-09-06T07:18:10.322Z,1016.53
2022-09-06T07:21:39.650Z,1016.58
2022-09-06T07:22:13.573Z,1016.61
2022-09-06T07:24:11.300Z,1016.62
2022-09-06T07:25:10.250Z,1016.62
2022-09-06T07:26:10.237Z,1016.61
2022-09-06T07:28:11.212Z,1016.60
2022-09-06T07:29:10.221Z,1016.64
2022-09-06T07:30:10.196Z,1016.65
2022-09-06T07:32:11.359Z,1016.69
2022-09-06T07:33:10.167Z,1016.73
2022-09-06T07:34:10.154Z,1016.74
2022-09-06T07:35:10.191Z,1016.78
2022-09-06T07:36:10.124Z,1016.69
2022-09-06T07:37:10.115Z,1016.72
2022-09-06T07:38:10.103Z,1016.73
2022-09-06T07:39:10.107Z,1016.73
2022-09-06T07:40:10.166Z,1016.69
2022-09-06T07:41:10.081Z,1016.65
2022-09-06T07:42:10.070Z,1016.70
2022-09-06T07:43:10.053Z,1016.62
2022-09-06T07:44:10.052Z,1016.68
2022-09-06T07:45:10.029Z,1016.62
2022-09-06T07:46:10.021Z,1016.72
2022-09-06T07:48:10.995Z,1016.68
2022-09-06T07:49:10.001Z,1016.65
2022-09-06T07:51:10.970Z,1016.64
2022-09-06T07:53:15.140Z,1016.55
2022-09-06T07:54:36.151Z,1016.52
2022-09-06T07:55:10.920Z,1016.53
2022-09-06T07:56:09.909Z,1016.41
2022-09-06T07:57:09.897Z,1016.45
2022-09-06T07:58:09.910Z,1016.51
2022-09-06T07:59:09.888Z,1016.52
2022-09-06T08:00:09.868Z,1016.53
2022-09-06T08:01:09.899Z,1016.47
2022-09-06T08:02:09.870Z,1016.47
2022-09-06T08:03:09.835Z,1016.48
2022-09-06T08:04:09.843Z,1016.48
2022-09-06T08:06:11.091Z,1016.44
2022-09-06T08:07:40.322Z,1016.44
2022-09-06T08:09:10.780Z,1016.50
2022-09-06T08:10:09.760Z,1016.50
2022-09-06T08:11:09.758Z,1016.52
2022-09-06T08:12:09.735Z,1016.60
2022-09-06T08:13:09.735Z,1016.50
2022-09-06T08:14:09.730Z,1016.51
2022-09-06T08:15:09.705Z,1016.50
2022-09-06T08:16:09.749Z,1016.54
2022-09-06T08:17:09.684Z,1016.48
2022-09-06T08:18:09.668Z,1016.51
2022-09-06T08:19:09.675Z,1016.46
2022-09-06T08:20:09.647Z,1016.56
2022-09-06T08:21:12.383Z,1016.63
2022-09-06T08:22:09.624Z,1016.55
2022-09-06T08:23:09.616Z,1016.62
2022-09-06T08:24:09.610Z,1016.63
2022-09-06T08:25:09.629Z,1016.62
2022-09-06T08:26:09.579Z,1016.63
2022-09-06T08:27:09.569Z,1016.65
2022-09-06T08:28:09.557Z,1016.68
2022-09-06T08:29:09.557Z,1016.66
2022-09-06T08:30:09.537Z,1016.72
2022-09-06T08:31:09.652Z,1016.66
2022-09-06T08:32:09.513Z,1016.60
2022-09-06T08:33:09.502Z,1016.61
2022-09-06T08:34:09.502Z,1016.60
2022-09-06T08:35:09.481Z,1016.62
2022-09-06T08:36:09.477Z,1016.55
2022-09-06T08:37:09.461Z,1016.64
2022-09-06T08:38:09.449Z,1016.53
2022-09-06T08:39:09.449Z,1016.55
2022-09-06T08:40:09.507Z,1016.53
2022-09-06T08:41:09.430Z,1016.57
2022-09-06T08:42:09.399Z,1016.47
2022-09-06T08:43:09.390Z,1016.56
2022-09-06T08:45:10.374Z,1016.44
2022-09-06T08:46:09.486Z,1016.51
2022-09-06T08:47:09.346Z,1016.53
2022-09-06T08:48:09.332Z,1016.53
2022-09-06T08:49:09.344Z,1016.51
2022-09-06T08:50:09.334Z,1016.44
2022-09-06T08:51:09.303Z,1016.42
2022-09-06T08:52:09.287Z,1016.47
2022-09-06T08:53:17.639Z,1016.46
2022-09-06T08:54:10.275Z,1016.42
2022-09-06T08:55:09.256Z,1016.39
2022-09-06T08:56:09.243Z,1016.41
2022-09-06T08:57:09.236Z,1016.49
2022-09-06T08:58:09.224Z,1016.38
2022-09-06T08:59:09.234Z,1016.40
2022-09-06T09:00:11.031Z,1016.41
2022-09-06T09:01:09.280Z,1016.35
2022-09-06T09:02:09.284Z,1016.30
2022-09-06T09:03:13.202Z,1016.33
2022-09-06T09:04:10.171Z,1016.34
2022-09-06T09:05:09.145Z,1016.38
2022-09-06T09:06:09.140Z,1016.35
2022-09-06T09:07:09.127Z,1016.29
2022-09-06T09:08:09.117Z,1016.30
2022-09-06T09:09:09.117Z,1016.28
2022-09-06T09:10:09.095Z,1016.30
2022-09-06T09:11:09.082Z,1016.26
2022-09-06T09:12:09.073Z,1016.24
2022-09-06T09:13:09.062Z,1016.24
2022-09-06T09:14:09.068Z,1016.23
2022-09-06T09:15:09.043Z,1016.29
2022-09-06T09:16:09.107Z,1016.24
2022-09-06T09:17:09.019Z,1016.19
2022-09-06T09:18:09.007Z,1016.29
2022-09-06T09:19:09.008Z,1016.27
2022-09-06T09:20:08.988Z,1016.23
2022-09-06T09:21:08.972Z,1016.21
2022-09-06T09:22:08.987Z,1016.21
2022-09-06T09:23:08.951Z,1016.26
2022-09-06T09:24:08.957Z,1016.22
2022-09-06T09:25:08.930Z,1016.14
2022-09-06T09:26:08.926Z,1016.13
2022-09-06T09:27:08.908Z,1016.11
2022-09-06T09:28:08.909Z,1016.16
2022-09-06T09:29:08.889Z,1016.16
2022-09-06T09:31:09.930Z,1016.18
2022-09-06T09:32:08.862Z,1016.19
2022-09-06T09:33:08.856Z,1016.29
2022-09-06T09:34:08.847Z,1016.16
2022-09-06T09:35:08.825Z,1016.19
2022-09-06T09:36:08.815Z,1016.14
2022-09-06T09:38:12.027Z,1016.12
2022-09-06T09:39:08.784Z,1016.06
2022-09-06T09:40:08.825Z,1016.08
2022-09-06T09:41:08.756Z,1016.05
2022-09-06T09:42:08.747Z,1015.99
2022-09-06T09:43:08.745Z,1015.95
2022-09-06T09:44:08.729Z,1015.88
2022-09-06T09:45:08.712Z,1015.88
2022-09-06T09:46:08.780Z,1015.92
2022-09-06T09:47:08.696Z,1015.87
2022-09-06T09:48:08.706Z,1015.82
2022-09-06T09:49:08.670Z,1015.86
2022-09-06T09:50:08.669Z,1015.78
2022-09-06T09:51:08.649Z,1015.77
2022-09-06T09:52:08.639Z,1015.82
2022-09-06T09:53:08.634Z,1015.81
2022-09-06T09:54:08.621Z,1015.83
2022-09-06T09:55:08.601Z,1015.84
2022-09-06T09:56:08.600Z,1015.82
2022-09-06T09:57:11.727Z,1015.82
2022-09-06T09:58:08.591Z,1015.88
2022-09-06T09:59:08.591Z,1015.78
2022-09-06T10:00:08.551Z,1015.83
2022-09-06T10:01:08.581Z,1015.85
2022-09-06T10:02:08.527Z,1015.75
2022-09-06T10:03:08.570Z,1015.76
2022-09-06T10:05:09.520Z,1015.72
2022-09-06T10:07:10.016Z,1015.74
2022-09-06T10:08:08.470Z,1015.66
2022-09-06T10:09:08.452Z,1015.68
2022-09-06T10:10:08.439Z,1015.70
2022-09-06T10:11:08.429Z,1015.73
2022-09-06T10:12:08.415Z,1015.81
2022-09-06T10:13:08.416Z,1015.64
2022-09-06T10:14:08.396Z,1015.78
2022-09-06T10:15:08.380Z,1015.70
2022-09-06T10:16:08.416Z,1015.67
2022-09-06T10:17:08.359Z,1015.65
2022-09-06T10:18:08.367Z,1015.66
2022-09-06T10:19:08.339Z,1015.66
2022-09-06T10:20:08.330Z,1015.64
2022-09-06T10:21:08.346Z,1015.67
2022-09-06T10:22:08.310Z,1015.62
2022-09-06T10:23:08.310Z,1015.63
2022-09-06T10:25:09.273Z,1015.60
2022-09-06T10:26:08.269Z,1015.53
2022-09-06T10:27:08.255Z,1015.55
2022-09-06T10:28:11.364Z,1015.57
2022-09-06T10:29:08.237Z,1015.64
2022-09-06T10:30:08.223Z,1015.62
2022-09-06T10:31:08.257Z,1015.60
2022-09-06T10:32:08.216Z,1015.62
2022-09-06T10:33:08.191Z,1015.65
2022-09-06T10:34:08.186Z,1015.62
2022-09-06T10:35:08.171Z,1015.59
2022-09-06T10:36:08.186Z,1015.61
2022-09-06T10:37:08.156Z,1015.68
2022-09-06T10:38:08.170Z,1015.66
2022-09-06T10:39:08.128Z,1015.61
2022-09-06T10:40:08.183Z,1015.54
2022-09-06T10:41:08.106Z,1015.51
2022-09-06T10:42:08.107Z,1015.56
2022-09-06T10:43:08.085Z,1015.57
2022-09-06T10:44:08.076Z,1015.57
2022-09-06T10:45:08.061Z,1015.54
2022-09-06T10:46:08.093Z,1015.49
2022-09-06T10:47:08.064Z,1015.52
2022-09-06T10:48:12.454Z,1015.54
2022-09-06T10:49:09.017Z,1015.43
2022-09-06T10:50:08.009Z,1015.37
2022-09-06T10:51:07.995Z,1015.44
2022-09-06T10:52:08.000Z,1015.37
2022-09-06T10:53:07.977Z,1015.46
2022-09-06T10:54:07.965Z,1015.34
2022-09-06T10:55:07.954Z,1015.37
2022-09-06T10:56:08.791Z,1015.41
2022-09-06T10:57:08.233Z,1015.37
2022-09-06T11:00:08.899Z,1015.36
2022-09-06T11:01:07.899Z,1015.46
2022-09-06T11:02:08.008Z,1015.40
2022-09-06T11:04:12.548Z,1015.29
2022-09-06T11:06:08.871Z,1015.30
2022-09-06T11:07:07.848Z,1015.33
2022-09-06T11:09:08.803Z,1015.36
2022-09-06T11:10:07.797Z,1015.35
2022-09-06T11:11:07.781Z,1015.35
2022-09-06T11:12:07.788Z,1015.40
2022-09-06T11:13:07.759Z,1015.34
2022-09-06T11:14:07.764Z,1015.41
2022-09-06T11:15:07.759Z,1015.39
2022-09-06T11:16:07.764Z,1015.32
2022-09-06T11:17:07.743Z,1015.32
2022-09-06T11:18:07.710Z,1015.36
2022-09-06T11:19:07.700Z,1015.28
2022-09-06T11:20:07.688Z,1015.26
2022-09-06T11:21:07.698Z,1015.26
2022-09-06T11:22:07.684Z,1015.23
2022-09-06T11:23:07.657Z,1015.31
2022-09-06T11:24:07.647Z,1015.24
2022-09-06T11:25:07.633Z,1015.24
2022-09-06T11:26:07.624Z,1015.27
2022-09-06T11:27:07.622Z,1015.25
2022-09-06T11:28:07.605Z,1015.29
2022-09-06T11:29:07.592Z,1015.19
2022-09-06T11:30:07.581Z,1015.20
2022-09-06T11:31:07.617Z,1015.20
2022-09-06T11:33:08.545Z,1015.19
2022-09-06T11:34:07.537Z,1015.21
2022-09-06T11:35:07.525Z,1015.21
2022-09-06T11:36:07.515Z,1015.19
2022-09-06T11:37:07.518Z,1015.26
2022-09-06T11:38:07.496Z,1015.19
2022-09-06T11:39:07.485Z,1015.07
2022-09-06T11:41:12.078Z,1015.21
2022-09-06T11:42:07.462Z,1015.11
2022-09-06T11:43:07.446Z,1015.23
2022-09-06T11:44:07.431Z,1015.20
2022-09-06T11:45:07.419Z,1015.05
2022-09-06T11:46:07.443Z,1015.03
2022-09-06T11:47:07.406Z,1015.16
2022-09-06T11:48:07.430Z,1015.09
2022-09-06T11:49:07.374Z,1015.13
2022-09-06T11:50:07.499Z,1015.16
2022-09-06T11:51:07.359Z,1015.15
2022-09-06T11:52:07.365Z,1015.12
2022-09-06T11:53:07.341Z,1015.10
2022-09-06T11:54:07.326Z,1015.15
2022-09-06T11:55:07.316Z,1015.15
2022-09-06T11:56:07.308Z,1015.15
2022-09-06T11:57:07.304Z,1015.14
2022-09-06T11:58:07.297Z,1015.17
2022-09-06T11:59:07.276Z,1015.09
2022-09-06T12:00:07.343Z,1015.07
2022-09-06T12:01:07.290Z,1015.09
2022-09-06T12:02:07.248Z,1015.09
2022-09-06T12:04:09.438Z,1015.05
2022-09-06T12:05:07.295Z,1015.02
2022-09-06T12:06:07.199Z,1015.08
2022-09-06T12:07:07.201Z,1015.02
2022-09-06T12:08:07.180Z,1014.96
2022-09-06T12:09:07.164Z,1014.99
2022-09-06T12:10:07.158Z,1014.98
2022-09-06T12:11:07.162Z,1014.89
2022-09-06T12:12:07.184Z,1014.91
2022-09-06T12:13:07.123Z,1015.00
2022-09-06T12:14:07.116Z,1015.00
2022-09-06T12:15:07.101Z,1014.89
2022-09-06T12:16:07.218Z,1014.94
2022-09-06T12:17:07.099Z,1014.91
2022-09-06T12:18:07.070Z,1014.93
2022-09-06T12:19:07.060Z,1014.92
2022-09-06T12:20:07.236Z,1014.91
2022-09-06T12:21:07.037Z,1014.96
2022-09-06T12:22:07.040Z,1014.93
2022-09-06T12:23:07.018Z,1014.94
2022-09-06T12:24:07.014Z,1015.01
2022-09-06T12:25:06.994Z,1015.02
2022-09-06T12:26:06.988Z,1014.87
2022-09-06T12:27:06.991Z,1014.90
2022-09-06T12:28:06.966Z,1014.92
2022-09-06T12:29:06.953Z,1014.84
2022-09-06T12:30:06.952Z,1014.77
2022-09-06T12:31:06.985Z,1014.80
2022-09-06T12:32:06.935Z,1014.78